UAL1B KBOS-CYYZ
Flight info
| Callsign | UAL1B |
|---|---|
| Flight time | 1h 17m |
| Altitude | 36000 |
| Route | HYLND7 HYLND DCT CAM Q822 GONZZ DCT WOZEE LINNG3 |
| Aircraft | B738/M-SDE2E3FGHIRWXY/LB1 |
Departure
| Time | 2026-05-04 21:40 |
|---|---|
| Airport | Boston Logan International Airport (KBOS) |
Arrival
| Time | 2026-05-04 22:57 |
|---|---|
| Airport | Toronto Pearson International Airport (CYYZ) |
| Time | Latitude | Longitude | Altitude | Speed | Heading |
|---|---|---|---|---|---|
| 2026-05-04 21:14 | 42.36126 | -71.01659 | 24 ft | 0 kts | 289° |
| 2026-05-04 21:28 | 42.36125 | -71.01654 | 28 ft | 2 kts | 289° |
| 2026-05-04 21:28 | 42.36118 | -71.01631 | 28 ft | 3 kts | 294° |
| 2026-05-04 21:28 | 42.36109 | -71.01607 | 28 ft | 3 kts | 301° |
| 2026-05-04 21:29 | 42.36098 | -71.01584 | 28 ft | 3 kts | 313° |
| 2026-05-04 21:29 | 42.36083 | -71.01567 | 27 ft | 3 kts | 336° |
| 2026-05-04 21:29 | 42.36068 | -71.01563 | 26 ft | 2 kts | 15° |
| 2026-05-04 21:29 | 42.36065 | -71.01564 | 26 ft | 0 kts | 19° |
| 2026-05-04 21:33 | 42.36069 | -71.01562 | 26 ft | 2 kts | 19° |
| 2026-05-04 21:33 | 42.36101 | -71.01547 | 25 ft | 8 kts | 19° |
| 2026-05-04 21:33 | 42.36165 | -71.01516 | 26 ft | 10 kts | 21° |
| 2026-05-04 21:33 | 42.36230 | -71.01482 | 26 ft | 11 kts | 20° |
| 2026-05-04 21:34 | 42.36310 | -71.01442 | 27 ft | 14 kts | 20° |
| 2026-05-04 21:34 | 42.36419 | -71.01392 | 26 ft | 18 kts | 20° |
| 2026-05-04 21:34 | 42.36534 | -71.01325 | 26 ft | 18 kts | 25° |
| 2026-05-04 21:34 | 42.36610 | -71.01283 | 25 ft | 17 kts | 18° |
| 2026-05-04 21:35 | 42.36714 | -71.01245 | 26 ft | 7 kts | 12° |
| 2026-05-04 21:35 | 42.36770 | -71.01254 | 28 ft | 11 kts | 331° |
| 2026-05-04 21:35 | 42.36848 | -71.01269 | 26 ft | 15 kts | 34° |
| 2026-05-04 21:35 | 42.36937 | -71.01164 | 28 ft | 18 kts | 41° |
| 2026-05-04 21:36 | 42.37042 | -71.01074 | 26 ft | 18 kts | 26° |
| 2026-05-04 21:36 | 42.37151 | -71.01003 | 27 ft | 17 kts | 26° |
| 2026-05-04 21:36 | 42.37226 | -71.00954 | 29 ft | 4 kts | 25° |
| 2026-05-04 21:36 | 42.37247 | -71.00941 | 27 ft | 0 kts | 25° |
| 2026-05-04 21:37 | 42.37256 | -71.00935 | 25 ft | 4 kts | 25° |
| 2026-05-04 21:37 | 42.37304 | -71.00905 | 25 ft | 11 kts | 21° |
| 2026-05-04 21:37 | 42.37392 | -71.00862 | 24 ft | 16 kts | 20° |
| 2026-05-04 21:38 | 42.37508 | -71.00806 | 26 ft | 19 kts | 19° |
| 2026-05-04 21:38 | 42.37630 | -71.00748 | 28 ft | 18 kts | 19° |
| 2026-05-04 21:38 | 42.37745 | -71.00692 | 25 ft | 17 kts | 19° |
| 2026-05-04 21:38 | 42.37816 | -71.00656 | 27 ft | 10 kts | 23° |
| 2026-05-04 21:39 | 42.37831 | -71.00573 | 25 ft | 10 kts | 101° |
| 2026-05-04 21:39 | 42.37808 | -71.00489 | 26 ft | 9 kts | 128° |
| 2026-05-04 21:39 | 42.37740 | -71.00499 | 25 ft | 16 kts | 198° |
| 2026-05-04 21:39 | 42.37445 | -71.00643 | 27 ft | 83 kts | 199° |
| 2026-05-04 21:40 | 42.36684 | -71.01033 | 36 ft | 148 kts | 206° |
| 2026-05-04 21:40 | 42.35677 | -71.01572 | 770 ft | 149 kts | 203° |
| 2026-05-04 21:40 | 42.34613 | -71.01946 | 1346 ft | 185 kts | 184° |
| 2026-05-04 21:40 | 42.33300 | -71.01335 | 1841 ft | 215 kts | 148° |
| 2026-05-04 21:41 | 42.32324 | -70.99702 | 2579 ft | 224 kts | 127° |
| 2026-05-04 21:41 | 42.31474 | -70.97821 | 3031 ft | 252 kts | 127° |
| 2026-05-04 21:41 | 42.30864 | -70.95508 | 3704 ft | 276 kts | 96° |
| 2026-05-04 21:41 | 42.31189 | -70.92885 | 4441 ft | 291 kts | 73° |
| 2026-05-04 21:42 | 42.31788 | -70.90246 | 5366 ft | 295 kts | 73° |
| 2026-05-04 21:42 | 42.32323 | -70.87559 | 6392 ft | 297 kts | 76° |
| 2026-05-04 21:42 | 42.32788 | -70.84822 | 7333 ft | 301 kts | 76° |
| 2026-05-04 21:42 | 42.33256 | -70.82045 | 8216 ft | 305 kts | 68° |
| 2026-05-04 21:43 | 42.34401 | -70.79693 | 9118 ft | 298 kts | 34° |
| 2026-05-04 21:43 | 42.36170 | -70.78437 | 10113 ft | 282 kts | 8° |
| 2026-05-04 21:43 | 42.38119 | -70.78205 | 10715 ft | 287 kts | 349° |
| 2026-05-04 21:43 | 42.40106 | -70.78933 | 10905 ft | 307 kts | 330° |
| 2026-05-04 21:44 | 42.41896 | -70.80649 | 11108 ft | 326 kts | 316° |
| 2026-05-04 21:44 | 42.43627 | -70.82807 | 11296 ft | 349 kts | 314° |
| 2026-05-04 21:44 | 42.45408 | -70.85140 | 11724 ft | 362 kts | 313° |
| 2026-05-04 21:44 | 42.47225 | -70.87536 | 12382 ft | 368 kts | 313° |
| 2026-05-04 21:45 | 42.49058 | -70.89937 | 13099 ft | 373 kts | 313° |
| 2026-05-04 21:45 | 42.50944 | -70.92391 | 13768 ft | 379 kts | 314° |
| 2026-05-04 21:45 | 42.52859 | -70.94867 | 14445 ft | 382 kts | 314° |
| 2026-05-04 21:45 | 42.54790 | -70.97356 | 15194 ft | 383 kts | 314° |
| 2026-05-04 21:46 | 42.56728 | -70.99852 | 15878 ft | 386 kts | 314° |
| 2026-05-04 21:46 | 42.58683 | -71.02369 | 16552 ft | 388 kts | 314° |
| 2026-05-04 21:46 | 42.60645 | -71.04898 | 17233 ft | 391 kts | 314° |
| 2026-05-04 21:46 | 42.62625 | -71.07452 | 17865 ft | 394 kts | 314° |
| 2026-05-04 21:47 | 42.64616 | -71.10022 | 18465 ft | 397 kts | 314° |
| 2026-05-04 21:47 | 42.66623 | -71.12617 | 19052 ft | 398 kts | 314° |
| 2026-05-04 21:47 | 42.68638 | -71.15223 | 19624 ft | 401 kts | 315° |
| 2026-05-04 21:47 | 42.70664 | -71.17846 | 20172 ft | 403 kts | 315° |
| 2026-05-04 21:48 | 42.72675 | -71.20453 | 20709 ft | 405 kts | 315° |
| 2026-05-04 21:48 | 42.74721 | -71.23110 | 21230 ft | 408 kts | 314° |
| 2026-05-04 21:48 | 42.76538 | -71.26072 | 21704 ft | 410 kts | 302° |
| 2026-05-04 21:48 | 42.77890 | -71.29490 | 22223 ft | 412 kts | 294° |
| 2026-05-04 21:49 | 42.78815 | -71.33194 | 22672 ft | 416 kts | 284° |
| 2026-05-04 21:49 | 42.79298 | -71.37097 | 23120 ft | 420 kts | 280° |
| 2026-05-04 21:49 | 42.79716 | -71.41046 | 23528 ft | 423 kts | 280° |
| 2026-05-04 21:49 | 42.80124 | -71.45029 | 23918 ft | 425 kts | 280° |
| 2026-05-04 21:50 | 42.80533 | -71.49010 | 24343 ft | 425 kts | 280° |
| 2026-05-04 21:50 | 42.80952 | -71.53002 | 24758 ft | 426 kts | 280° |
| 2026-05-04 21:50 | 42.81378 | -71.57006 | 25145 ft | 427 kts | 281° |
| 2026-05-04 21:50 | 42.81811 | -71.61016 | 25511 ft | 429 kts | 281° |
| 2026-05-04 21:51 | 42.82248 | -71.65042 | 25864 ft | 430 kts | 281° |
| 2026-05-04 21:51 | 42.82686 | -71.69078 | 26211 ft | 432 kts | 281° |
| 2026-05-04 21:51 | 42.83125 | -71.73128 | 26563 ft | 433 kts | 281° |
| 2026-05-04 21:51 | 42.83565 | -71.77189 | 26928 ft | 433 kts | 281° |
| 2026-05-04 21:52 | 42.84002 | -71.81247 | 27330 ft | 432 kts | 281° |
| 2026-05-04 21:52 | 42.84435 | -71.85287 | 27831 ft | 429 kts | 281° |
| 2026-05-04 21:52 | 42.84862 | -71.89287 | 28335 ft | 425 kts | 281° |
| 2026-05-04 21:52 | 42.85286 | -71.93270 | 28827 ft | 423 kts | 281° |
| 2026-05-04 21:53 | 42.85707 | -71.97233 | 29317 ft | 421 kts | 281° |
| 2026-05-04 21:53 | 42.86123 | -72.01169 | 29810 ft | 418 kts | 281° |
| 2026-05-04 21:53 | 42.86536 | -72.05082 | 30244 ft | 416 kts | 281° |
| 2026-05-04 21:53 | 42.86945 | -72.08969 | 30612 ft | 414 kts | 282° |
| 2026-05-04 21:54 | 42.87353 | -72.12861 | 30924 ft | 415 kts | 282° |
| 2026-05-04 21:54 | 42.87754 | -72.16697 | 31237 ft | 413 kts | 282° |
| 2026-05-04 21:54 | 42.88162 | -72.20619 | 31619 ft | 412 kts | 282° |
| 2026-05-04 21:54 | 42.88557 | -72.24430 | 31965 ft | 411 kts | 282° |
| 2026-05-04 21:55 | 42.88957 | -72.28293 | 32282 ft | 411 kts | 282° |
| 2026-05-04 21:55 | 42.89354 | -72.32149 | 32600 ft | 410 kts | 282° |
| 2026-05-04 21:55 | 42.89750 | -72.36002 | 32929 ft | 409 kts | 283° |
| 2026-05-04 21:55 | 42.90143 | -72.39837 | 33257 ft | 409 kts | 283° |
| 2026-05-04 21:56 | 42.90534 | -72.43672 | 33579 ft | 408 kts | 283° |
| 2026-05-04 21:56 | 42.90923 | -72.47504 | 33908 ft | 407 kts | 283° |
| 2026-05-04 21:56 | 42.91311 | -72.51342 | 34153 ft | 407 kts | 283° |
| 2026-05-04 21:56 | 42.91699 | -72.55175 | 34308 ft | 410 kts | 282° |
| 2026-05-04 21:57 | 42.92088 | -72.59039 | 34486 ft | 411 kts | 282° |
| 2026-05-04 21:57 | 42.92475 | -72.62899 | 34724 ft | 410 kts | 282° |
| 2026-05-04 21:57 | 42.92860 | -72.66759 | 34935 ft | 411 kts | 282° |
| 2026-05-04 21:57 | 42.93241 | -72.70581 | 35101 ft | 412 kts | 282° |
| 2026-05-04 21:58 | 42.93628 | -72.74476 | 35289 ft | 414 kts | 281° |
| 2026-05-04 21:58 | 42.94012 | -72.78361 | 35510 ft | 414 kts | 281° |
| 2026-05-04 21:58 | 42.94397 | -72.82266 | 35663 ft | 416 kts | 281° |
| 2026-05-04 21:58 | 42.94780 | -72.86179 | 35779 ft | 417 kts | 281° |
| 2026-05-04 21:59 | 42.95161 | -72.90085 | 35803 ft | 413 kts | 281° |
| 2026-05-04 21:59 | 42.95919 | -72.97869 | 35805 ft | 415 kts | 281° |
| 2026-05-04 22:00 | 42.96677 | -73.05718 | 35794 ft | 418 kts | 281° |
| 2026-05-04 22:00 | 42.97432 | -73.13599 | 35804 ft | 419 kts | 281° |
| 2026-05-04 22:01 | 42.98185 | -73.21506 | 35794 ft | 420 kts | 281° |
| 2026-05-04 22:01 | 42.98932 | -73.29414 | 35802 ft | 420 kts | 281° |
| 2026-05-04 22:02 | 42.99551 | -73.37358 | 35801 ft | 421 kts | 277° |
| 2026-05-04 22:02 | 42.99754 | -73.45375 | 35796 ft | 422 kts | 275° |
| 2026-05-04 22:03 | 42.99898 | -73.53327 | 35792 ft | 421 kts | 275° |
| 2026-05-04 22:03 | 43.00066 | -73.61321 | 35803 ft | 420 kts | 276° |
| 2026-05-04 22:04 | 43.00248 | -73.69296 | 35788 ft | 419 kts | 276° |
| 2026-05-04 22:04 | 43.00428 | -73.77261 | 35791 ft | 419 kts | 276° |
| 2026-05-04 22:05 | 43.00604 | -73.85216 | 35785 ft | 418 kts | 276° |
| 2026-05-04 22:05 | 43.00771 | -73.93132 | 35786 ft | 416 kts | 276° |
| 2026-05-04 22:06 | 43.00934 | -74.01035 | 35785 ft | 416 kts | 276° |
| 2026-05-04 22:06 | 43.01090 | -74.08938 | 35789 ft | 416 kts | 275° |
| 2026-05-04 22:07 | 43.01242 | -74.16837 | 35793 ft | 416 kts | 275° |
| 2026-05-04 22:07 | 43.01389 | -74.24739 | 35795 ft | 416 kts | 275° |
| 2026-05-04 22:08 | 43.01663 | -74.32646 | 35799 ft | 415 kts | 277° |
| 2026-05-04 22:08 | 43.02050 | -74.40529 | 35794 ft | 415 kts | 277° |
| 2026-05-04 22:09 | 43.02422 | -74.48364 | 35791 ft | 416 kts | 277° |
| 2026-05-04 22:09 | 43.02774 | -74.56256 | 35794 ft | 416 kts | 277° |
| 2026-05-04 22:10 | 43.03113 | -74.64151 | 35796 ft | 416 kts | 277° |
| 2026-05-04 22:10 | 43.03445 | -74.72060 | 35792 ft | 417 kts | 277° |
| 2026-05-04 22:11 | 43.03774 | -74.79975 | 35793 ft | 417 kts | 276° |
| 2026-05-04 22:11 | 43.04096 | -74.87887 | 35793 ft | 417 kts | 276° |
| 2026-05-04 22:12 | 43.04411 | -74.95752 | 35793 ft | 417 kts | 276° |
| 2026-05-04 22:12 | 43.04723 | -75.03673 | 35774 ft | 417 kts | 276° |
| 2026-05-04 22:13 | 43.05030 | -75.11598 | 35783 ft | 417 kts | 276° |
| 2026-05-04 22:13 | 43.05332 | -75.19528 | 35779 ft | 417 kts | 276° |
| 2026-05-04 22:14 | 43.05629 | -75.27458 | 35776 ft | 418 kts | 276° |
| 2026-05-04 22:14 | 43.05891 | -75.35403 | 35768 ft | 418 kts | 275° |
| 2026-05-04 22:15 | 43.06107 | -75.43352 | 35766 ft | 419 kts | 275° |
| 2026-05-04 22:15 | 43.06317 | -75.51315 | 35563 ft | 420 kts | 275° |
| 2026-05-04 22:15 | 43.06422 | -75.55305 | 35320 ft | 418 kts | 275° |
| 2026-05-04 22:16 | 43.06526 | -75.59251 | 35069 ft | 414 kts | 275° |
| 2026-05-04 22:16 | 43.06628 | -75.63177 | 34834 ft | 414 kts | 275° |
| 2026-05-04 22:16 | 43.06730 | -75.67119 | 34594 ft | 414 kts | 275° |
| 2026-05-04 22:16 | 43.06832 | -75.71059 | 34362 ft | 414 kts | 275° |
| 2026-05-04 22:17 | 43.06931 | -75.74997 | 34123 ft | 414 kts | 275° |
| 2026-05-04 22:17 | 43.07030 | -75.78933 | 33870 ft | 414 kts | 275° |
| 2026-05-04 22:17 | 43.07126 | -75.82873 | 33611 ft | 414 kts | 275° |
| 2026-05-04 22:17 | 43.07221 | -75.86797 | 33336 ft | 413 kts | 275° |
| 2026-05-04 22:18 | 43.07284 | -75.89404 | 33155 ft | 413 kts | 275° |
| 2026-05-04 22:18 | 43.07407 | -75.94596 | 32792 ft | 413 kts | 275° |
| 2026-05-04 22:18 | 43.07498 | -75.98522 | 32525 ft | 413 kts | 275° |
| 2026-05-04 22:18 | 43.07559 | -76.01174 | 32340 ft | 413 kts | 275° |
| 2026-05-04 22:19 | 43.07676 | -76.06378 | 32006 ft | 413 kts | 275° |
| 2026-05-04 22:19 | 43.07735 | -76.09035 | 31843 ft | 414 kts | 274° |
| 2026-05-04 22:19 | 43.07823 | -76.13009 | 31776 ft | 416 kts | 274° |
| 2026-05-04 22:20 | 43.07992 | -76.20872 | 31746 ft | 418 kts | 274° |
| 2026-05-04 22:20 | 43.08156 | -76.28820 | 31734 ft | 418 kts | 274° |
| 2026-05-04 22:21 | 43.08315 | -76.36770 | 31746 ft | 418 kts | 274° |
| 2026-05-04 22:21 | 43.08469 | -76.44711 | 31742 ft | 417 kts | 274° |
| 2026-05-04 22:22 | 43.08617 | -76.52657 | 31746 ft | 418 kts | 274° |
| 2026-05-04 22:22 | 43.08761 | -76.60605 | 31743 ft | 418 kts | 274° |
| 2026-05-04 22:23 | 43.08886 | -76.68553 | 31745 ft | 419 kts | 272° |
| 2026-05-04 22:23 | 43.08430 | -76.76526 | 31737 ft | 421 kts | 267° |
| 2026-05-04 22:24 | 43.07862 | -76.84459 | 31560 ft | 411 kts | 267° |
| 2026-05-04 22:24 | 43.07586 | -76.88319 | 30964 ft | 406 kts | 267° |
| 2026-05-04 22:24 | 43.07319 | -76.92124 | 30202 ft | 407 kts | 267° |
| 2026-05-04 22:24 | 43.07052 | -76.95967 | 29795 ft | 400 kts | 267° |
| 2026-05-04 22:25 | 43.06790 | -76.99710 | 29402 ft | 391 kts | 267° |
| 2026-05-04 22:25 | 43.06532 | -77.03435 | 29135 ft | 396 kts | 267° |
| 2026-05-04 22:25 | 43.06271 | -77.07214 | 28844 ft | 402 kts | 267° |
| 2026-05-04 22:25 | 43.06006 | -77.11021 | 28568 ft | 401 kts | 267° |
| 2026-05-04 22:26 | 43.05740 | -77.14796 | 28297 ft | 397 kts | 267° |
| 2026-05-04 22:26 | 43.05475 | -77.18543 | 28029 ft | 395 kts | 267° |
| 2026-05-04 22:26 | 43.05211 | -77.22268 | 27752 ft | 392 kts | 267° |
| 2026-05-04 22:26 | 43.04946 | -77.25969 | 27485 ft | 390 kts | 267° |
| 2026-05-04 22:27 | 43.04682 | -77.29648 | 27237 ft | 388 kts | 267° |
| 2026-05-04 22:27 | 43.04418 | -77.33316 | 26958 ft | 387 kts | 267° |
| 2026-05-04 22:27 | 43.04154 | -77.36975 | 26692 ft | 386 kts | 267° |
| 2026-05-04 22:27 | 43.03889 | -77.40617 | 26440 ft | 385 kts | 267° |
| 2026-05-04 22:28 | 43.03625 | -77.44245 | 26177 ft | 384 kts | 267° |
| 2026-05-04 22:28 | 43.03359 | -77.47872 | 25903 ft | 383 kts | 267° |
| 2026-05-04 22:28 | 43.03093 | -77.51487 | 25636 ft | 382 kts | 267° |
| 2026-05-04 22:28 | 43.02826 | -77.55093 | 25383 ft | 381 kts | 266° |
| 2026-05-04 22:29 | 43.02559 | -77.58693 | 25122 ft | 380 kts | 266° |
| 2026-05-04 22:29 | 43.02292 | -77.62271 | 24859 ft | 378 kts | 266° |
| 2026-05-04 22:29 | 43.02025 | -77.65841 | 24599 ft | 376 kts | 266° |
| 2026-05-04 22:29 | 43.01761 | -77.69349 | 24360 ft | 375 kts | 266° |
| 2026-05-04 22:30 | 43.01493 | -77.72889 | 24101 ft | 373 kts | 266° |
| 2026-05-04 22:30 | 43.01227 | -77.76410 | 23844 ft | 371 kts | 266° |
| 2026-05-04 22:30 | 43.00960 | -77.79916 | 23591 ft | 370 kts | 266° |
| 2026-05-04 22:30 | 43.00693 | -77.83400 | 23350 ft | 368 kts | 266° |
| 2026-05-04 22:31 | 43.00427 | -77.86870 | 23060 ft | 367 kts | 266° |
| 2026-05-04 22:31 | 43.00161 | -77.90327 | 22784 ft | 365 kts | 266° |
| 2026-05-04 22:31 | 42.99895 | -77.93767 | 22521 ft | 363 kts | 266° |
| 2026-05-04 22:31 | 42.99629 | -77.97183 | 22273 ft | 361 kts | 266° |
| 2026-05-04 22:32 | 42.99363 | -78.00592 | 22020 ft | 359 kts | 266° |
| 2026-05-04 22:32 | 42.99099 | -78.03975 | 21774 ft | 358 kts | 266° |
| 2026-05-04 22:32 | 42.98834 | -78.07350 | 21538 ft | 357 kts | 266° |
| 2026-05-04 22:32 | 42.98568 | -78.10717 | 21285 ft | 356 kts | 266° |
| 2026-05-04 22:33 | 42.98303 | -78.14076 | 21045 ft | 356 kts | 266° |
| 2026-05-04 22:33 | 42.98036 | -78.17430 | 20805 ft | 355 kts | 266° |
| 2026-05-04 22:33 | 42.97769 | -78.20777 | 20558 ft | 354 kts | 266° |
| 2026-05-04 22:33 | 42.97501 | -78.24124 | 20325 ft | 354 kts | 266° |
| 2026-05-04 22:34 | 42.97233 | -78.27463 | 20087 ft | 353 kts | 266° |
| 2026-05-04 22:34 | 42.96965 | -78.30789 | 19841 ft | 352 kts | 266° |
| 2026-05-04 22:34 | 42.96696 | -78.34104 | 19607 ft | 351 kts | 265° |
| 2026-05-04 22:34 | 42.96428 | -78.37409 | 19361 ft | 350 kts | 265° |
| 2026-05-04 22:35 | 42.96159 | -78.40710 | 19123 ft | 349 kts | 265° |
| 2026-05-04 22:35 | 42.95890 | -78.43992 | 18890 ft | 348 kts | 265° |
| 2026-05-04 22:35 | 42.95621 | -78.47269 | 18643 ft | 347 kts | 265° |
| 2026-05-04 22:35 | 42.95355 | -78.50496 | 18414 ft | 345 kts | 265° |
| 2026-05-04 22:36 | 42.95086 | -78.53748 | 18179 ft | 344 kts | 265° |
| 2026-05-04 22:36 | 42.94814 | -78.57032 | 17927 ft | 343 kts | 265° |
| 2026-05-04 22:36 | 42.94548 | -78.60229 | 17668 ft | 342 kts | 265° |
| 2026-05-04 22:36 | 42.94280 | -78.63447 | 17426 ft | 341 kts | 265° |
| 2026-05-04 22:37 | 42.94011 | -78.66649 | 17178 ft | 339 kts | 265° |
| 2026-05-04 22:37 | 42.93747 | -78.69838 | 16945 ft | 337 kts | 267° |
| 2026-05-04 22:37 | 42.93929 | -78.72987 | 16762 ft | 334 kts | 283° |
| 2026-05-04 22:37 | 42.94750 | -78.75976 | 16866 ft | 345 kts | 297° |
| 2026-05-04 22:38 | 42.96163 | -78.78725 | 16982 ft | 363 kts | 306° |
| 2026-05-04 22:38 | 42.97780 | -78.81410 | 16971 ft | 363 kts | 308° |
| 2026-05-04 22:38 | 42.99397 | -78.84008 | 16578 ft | 355 kts | 308° |
| 2026-05-04 22:38 | 43.00983 | -78.86559 | 15871 ft | 354 kts | 308° |
| 2026-05-04 22:39 | 43.02545 | -78.89101 | 15663 ft | 343 kts | 307° |
| 2026-05-04 22:39 | 43.04101 | -78.91664 | 15447 ft | 361 kts | 307° |
| 2026-05-04 22:39 | 43.05738 | -78.94381 | 15202 ft | 376 kts | 307° |
| 2026-05-04 22:39 | 43.07409 | -78.97161 | 14949 ft | 377 kts | 307° |
| 2026-05-04 22:40 | 43.09067 | -78.99920 | 14706 ft | 373 kts | 307° |
| 2026-05-04 22:40 | 43.10706 | -79.02654 | 14460 ft | 371 kts | 307° |
| 2026-05-04 22:40 | 43.12340 | -79.05381 | 14236 ft | 369 kts | 307° |
| 2026-05-04 22:40 | 43.13962 | -79.08091 | 13986 ft | 368 kts | 307° |
| 2026-05-04 22:41 | 43.15577 | -79.10791 | 13781 ft | 365 kts | 307° |
| 2026-05-04 22:41 | 43.17190 | -79.13488 | 13538 ft | 367 kts | 307° |
| 2026-05-04 22:41 | 43.18808 | -79.16195 | 13272 ft | 366 kts | 307° |
| 2026-05-04 22:41 | 43.20419 | -79.18877 | 12998 ft | 364 kts | 307° |
| 2026-05-04 22:42 | 43.22034 | -79.21561 | 12737 ft | 364 kts | 307° |
| 2026-05-04 22:42 | 43.23649 | -79.24232 | 12469 ft | 364 kts | 307° |
| 2026-05-04 22:42 | 43.25262 | -79.26884 | 12150 ft | 357 kts | 307° |
| 2026-05-04 22:42 | 43.26797 | -79.29391 | 12020 ft | 337 kts | 308° |
| 2026-05-04 22:43 | 43.28259 | -79.31766 | 11862 ft | 314 kts | 308° |
| 2026-05-04 22:43 | 43.29636 | -79.33978 | 11722 ft | 295 kts | 308° |
| 2026-05-04 22:43 | 43.30937 | -79.36041 | 11596 ft | 277 kts | 307° |
| 2026-05-04 22:43 | 43.32172 | -79.37985 | 11368 ft | 266 kts | 307° |
| 2026-05-04 22:44 | 43.33388 | -79.39877 | 10919 ft | 263 kts | 308° |
| 2026-05-04 22:44 | 43.34871 | -79.41400 | 10392 ft | 272 kts | 326° |
| 2026-05-04 22:44 | 43.36622 | -79.42437 | 9916 ft | 275 kts | 333° |
| 2026-05-04 22:44 | 43.38427 | -79.43301 | 9459 ft | 275 kts | 334° |
| 2026-05-04 22:45 | 43.40237 | -79.44138 | 8986 ft | 273 kts | 334° |
| 2026-05-04 22:45 | 43.44008 | -79.45025 | 8063 ft | 279 kts | 349° |
| 2026-05-04 22:45 | 43.45947 | -79.45242 | 7984 ft | 277 kts | 338° |
| 2026-05-04 22:46 | 43.47636 | -79.46330 | 7969 ft | 266 kts | 322° |
| 2026-05-04 22:46 | 43.49254 | -79.47561 | 7961 ft | 265 kts | 325° |
| 2026-05-04 22:46 | 43.50899 | -79.48696 | 7947 ft | 263 kts | 327° |
| 2026-05-04 22:46 | 43.52513 | -79.49760 | 7942 ft | 256 kts | 327° |
| 2026-05-04 22:47 | 43.54071 | -79.50765 | 7868 ft | 237 kts | 327° |
| 2026-05-04 22:47 | 43.55507 | -79.51687 | 7696 ft | 219 kts | 326° |
| 2026-05-04 22:47 | 43.56875 | -79.52565 | 7268 ft | 215 kts | 326° |
| 2026-05-04 22:47 | 43.58242 | -79.53408 | 6781 ft | 219 kts | 334° |
| 2026-05-04 22:48 | 43.59817 | -79.53415 | 6282 ft | 241 kts | 9° |
| 2026-05-04 22:48 | 43.61276 | -79.52149 | 5798 ft | 256 kts | 37° |
| 2026-05-04 22:48 | 43.62518 | -79.50380 | 5323 ft | 257 kts | 41° |
| 2026-05-04 22:48 | 43.63729 | -79.48570 | 4874 ft | 256 kts | 41° |
| 2026-05-04 22:49 | 43.64938 | -79.46766 | 4419 ft | 257 kts | 41° |
| 2026-05-04 22:49 | 43.66157 | -79.44957 | 4075 ft | 255 kts | 41° |
| 2026-05-04 22:49 | 43.67379 | -79.43155 | 4017 ft | 259 kts | 41° |
| 2026-05-04 22:49 | 43.68607 | -79.41352 | 4005 ft | 256 kts | 41° |
| 2026-05-04 22:50 | 43.69825 | -79.39568 | 3991 ft | 255 kts | 41° |
| 2026-05-04 22:50 | 43.71045 | -79.37785 | 3988 ft | 255 kts | 41° |
| 2026-05-04 22:50 | 43.72269 | -79.36030 | 3984 ft | 250 kts | 34° |
| 2026-05-04 22:50 | 43.73731 | -79.34961 | 3853 ft | 231 kts | 2° |
| 2026-05-04 22:51 | 43.75232 | -79.35073 | 3469 ft | 208 kts | 329° |
| 2026-05-04 22:51 | 43.76492 | -79.35965 | 3119 ft | 198 kts | 320° |
| 2026-05-04 22:51 | 43.77577 | -79.36956 | 3009 ft | 172 kts | 302° |
| 2026-05-04 22:51 | 43.77961 | -79.38356 | 3021 ft | 155 kts | 265° |
| 2026-05-04 22:52 | 43.77844 | -79.39847 | 3014 ft | 155 kts | 260° |
| 2026-05-04 22:52 | 43.77687 | -79.41300 | 3009 ft | 154 kts | 260° |
| 2026-05-04 22:52 | 43.77526 | -79.42761 | 3006 ft | 154 kts | 260° |
| 2026-05-04 22:52 | 43.77364 | -79.44229 | 3003 ft | 154 kts | 260° |
| 2026-05-04 22:53 | 43.77046 | -79.45633 | 2997 ft | 156 kts | 240° |
| 2026-05-04 22:53 | 43.76414 | -79.46854 | 2916 ft | 157 kts | 237° |
| 2026-05-04 22:53 | 43.75759 | -79.48081 | 2709 ft | 160 kts | 236° |
| 2026-05-04 22:53 | 43.75073 | -79.49232 | 2512 ft | 147 kts | 232° |
| 2026-05-04 22:54 | 43.74407 | -79.50238 | 2308 ft | 139 kts | 230° |
| 2026-05-04 22:54 | 43.73780 | -79.51161 | 2165 ft | 123 kts | 230° |
| 2026-05-04 22:54 | 43.73202 | -79.52007 | 1972 ft | 118 kts | 229° |
| 2026-05-04 22:54 | 43.72631 | -79.52839 | 1830 ft | 122 kts | 230° |
| 2026-05-04 22:55 | 43.72034 | -79.53708 | 1648 ft | 126 kts | 227° |
| 2026-05-04 22:55 | 43.71434 | -79.54591 | 1486 ft | 126 kts | 227° |
| 2026-05-04 22:55 | 43.70831 | -79.55470 | 1339 ft | 130 kts | 227° |
| 2026-05-04 22:55 | 43.70202 | -79.56388 | 1212 ft | 131 kts | 225° |
| 2026-05-04 22:56 | 43.69580 | -79.57299 | 1061 ft | 129 kts | 226° |
| 2026-05-04 22:56 | 43.68977 | -79.58176 | 891 ft | 124 kts | 223° |
| 2026-05-04 22:56 | 43.68364 | -79.59053 | 742 ft | 130 kts | 227° |
| 2026-05-04 22:56 | 43.67761 | -79.59937 | 609 ft | 125 kts | 225° |
| 2026-05-04 22:57 | 43.67227 | -79.60711 | 560 ft | 85 kts | 226° |
| 2026-05-04 22:57 | 43.66975 | -79.61094 | 570 ft | 32 kts | 238° |
| 2026-05-04 22:57 | 43.66902 | -79.61342 | 566 ft | 11 kts | 254° |
| 2026-05-04 22:57 | 43.66916 | -79.61422 | 571 ft | 0 kts | 323° |
| 2026-05-04 22:58 | 43.66919 | -79.61425 | 571 ft | 2 kts | 327° |
| 2026-05-04 22:58 | 43.66944 | -79.61425 | 571 ft | 5 kts | 18° |
| 2026-05-04 22:59 | 43.66985 | -79.61389 | 564 ft | 10 kts | 41° |
| 2026-05-04 22:59 | 43.67046 | -79.61304 | 567 ft | 15 kts | 44° |
| 2026-05-04 22:59 | 43.67131 | -79.61188 | 562 ft | 12 kts | 44° |
| 2026-05-04 22:59 | 43.67202 | -79.61168 | 566 ft | 13 kts | 322° |
| 2026-05-04 23:00 | 43.67274 | -79.61260 | 559 ft | 16 kts | 317° |
| 2026-05-04 23:00 | 43.67366 | -79.61379 | 558 ft | 19 kts | 316° |
| 2026-05-04 23:00 | 43.67460 | -79.61505 | 558 ft | 18 kts | 315° |
| 2026-05-04 23:00 | 43.67548 | -79.61625 | 558 ft | 17 kts | 317° |
| 2026-05-04 23:01 | 43.67623 | -79.61676 | 560 ft | 13 kts | 19° |
| 2026-05-04 23:01 | 43.67699 | -79.61586 | 560 ft | 16 kts | 46° |
| 2026-05-04 23:01 | 43.67774 | -79.61477 | 563 ft | 15 kts | 46° |
| 2026-05-04 23:01 | 43.67831 | -79.61394 | 561 ft | 6 kts | 46° |
| 2026-05-04 23:02 | 43.67854 | -79.61377 | 563 ft | 5 kts | 19° |
| 2026-05-04 23:02 | 43.67882 | -79.61366 | 560 ft | 3 kts | 17° |
| 2026-05-04 23:02 | 43.67901 | -79.61355 | 560 ft | 3 kts | 25° |
| 2026-05-04 23:02 | 43.67917 | -79.61338 | 559 ft | 3 kts | 39° |
| 2026-05-04 23:03 | 43.67928 | -79.61314 | 557 ft | 3 kts | 70° |
| 2026-05-04 23:03 | 43.67929 | -79.61287 | 565 ft | 3 kts | 86° |
| 2026-05-04 23:03 | 43.67930 | -79.61260 | 563 ft | 3 kts | 89° |
| 2026-05-04 23:03 | 43.67930 | -79.61240 | 560 ft | 0 kts | 90° |